createdAt,value
2023-02-16T00:00:32.691Z,15.27
2023-02-16T00:03:01.911Z,13.40
2023-02-16T00:05:35.354Z,13.60
2023-02-16T00:08:02.386Z,13.15
2023-02-16T00:10:36.789Z,11.93
2023-02-16T00:13:44.401Z,12.45
2023-02-16T00:16:16.848Z,11.85
2023-02-16T00:18:47.205Z,12.57
2023-02-16T00:21:16.425Z,12.20
2023-02-16T00:23:43.472Z,13.07
2023-02-16T00:26:21.966Z,12.02
2023-02-16T00:28:58.458Z,13.32
2023-02-16T00:31:29.434Z,13.77
2023-02-16T00:34:19.326Z,14.40
2023-02-16T00:36:46.263Z,14.30
2023-02-16T00:39:13.169Z,15.57
2023-02-16T00:41:52.248Z,15.00
2023-02-16T00:44:32.750Z,15.50
2023-02-16T00:47:37.506Z,15.50
2023-02-16T00:50:13.972Z,14.07
2023-02-16T00:52:43.825Z,13.90
2023-02-16T00:55:13.866Z,14.38
2023-02-16T00:58:08.484Z,13.30
2023-02-16T01:00:52.003Z,12.50
2023-02-16T01:03:24.098Z,13.15
2023-02-16T01:06:15.499Z,12.73
2023-02-16T01:09:01.431Z,11.40
2023-02-16T01:11:29.189Z,12.57
2023-02-16T01:13:57.358Z,13.30
2023-02-16T01:16:27.828Z,11.57
2023-02-16T01:18:54.805Z,12.40
2023-02-16T01:21:24.467Z,13.27
2023-02-16T01:23:54.036Z,12.38
2023-02-16T01:26:23.940Z,12.63
2023-02-16T01:28:51.103Z,12.25
2023-02-16T01:31:18.348Z,13.57
2023-02-16T01:38:49.373Z,12.27
2023-02-16T01:41:47.251Z,13.57
2023-02-16T01:44:46.590Z,13.27
2023-02-16T01:47:29.635Z,14.57
2023-02-16T01:50:03.292Z,14.35
2023-02-16T01:52:30.719Z,15.02
2023-02-16T01:55:22.643Z,13.85
2023-02-16T01:58:04.596Z,14.43
2023-02-16T02:00:52.933Z,13.45
2023-02-16T02:03:43.351Z,14.30
2023-02-16T02:06:19.397Z,13.93
2023-02-16T02:08:56.770Z,13.98
2023-02-16T02:11:35.450Z,14.55
2023-02-16T02:14:15.651Z,14.00
2023-02-16T02:17:03.482Z,13.43
2023-02-16T02:19:45.383Z,14.23
2023-02-16T02:22:53.189Z,14.20
2023-02-16T02:25:52.993Z,14.55
2023-02-16T02:29:03.488Z,14.43
2023-02-16T02:32:00.179Z,15.20
2023-02-16T02:35:04.044Z,12.77
2023-02-16T02:37:47.500Z,13.00
2023-02-16T02:40:30.397Z,14.63
2023-02-16T02:43:20.079Z,13.73
2023-02-16T02:45:53.542Z,13.15
2023-02-16T02:48:22.070Z,12.73
2023-02-16T02:51:18.054Z,13.05
2023-02-16T02:54:14.860Z,13.13
2023-02-16T02:57:06.511Z,12.63
2023-02-16T02:59:54.066Z,13.27
2023-02-16T03:02:24.357Z,12.60
2023-02-16T03:04:53.826Z,12.30
2023-02-16T03:07:43.948Z,12.70
2023-02-16T03:10:29.700Z,12.48
2023-02-16T03:12:57.775Z,13.27
2023-02-16T03:15:26.267Z,13.23
2023-02-16T03:18:16.438Z,14.25
2023-02-16T03:21:03.980Z,12.73
2023-02-16T03:23:51.916Z,13.38
2023-02-16T03:26:40.574Z,13.00
2023-02-16T03:29:38.382Z,13.25
2023-02-16T03:32:07.155Z,13.50
2023-02-16T03:34:37.220Z,12.43
2023-02-16T03:37:05.606Z,13.27
2023-02-16T03:39:57.994Z,12.40
2023-02-16T03:42:25.169Z,13.52
2023-02-16T03:44:52.590Z,13.05
2023-02-16T03:47:19.646Z,13.98
2023-02-16T03:49:46.460Z,14.02
2023-02-16T03:52:13.398Z,13.93
2023-02-16T03:54:40.267Z,13.52
2023-02-16T03:57:08.253Z,12.75
2023-02-16T03:59:35.132Z,12.50
2023-02-16T04:02:02.723Z,13.18
2023-02-16T04:04:29.992Z,13.20
2023-02-16T04:12:12.126Z,12.55
2023-02-16T04:14:43.569Z,12.90
2023-02-16T04:17:10.730Z,12.27
2023-02-16T04:19:37.975Z,12.30
2023-02-16T04:22:08.823Z,13.48
2023-02-16T04:24:36.939Z,14.02
2023-02-16T04:27:03.992Z,13.00
2023-02-16T04:29:33.854Z,12.82
2023-02-16T04:32:00.997Z,13.85
2023-02-16T04:36:54.739Z,12.80
2023-02-16T04:39:22.045Z,14.07
2023-02-16T04:44:17.099Z,14.02
2023-02-16T04:46:44.382Z,14.05
2023-02-16T04:49:14.515Z,13.90
2023-02-16T04:51:41.494Z,13.35
2023-02-16T04:54:08.487Z,13.45
2023-02-16T04:56:35.600Z,12.80
2023-02-16T05:01:54.363Z,13.35
2023-02-16T05:06:51.772Z,15.73
2023-02-16T05:09:19.268Z,15.15
2023-02-16T05:12:07.269Z,13.45
2023-02-16T05:14:42.556Z,12.02
2023-02-16T05:17:21.759Z,12.63
2023-02-16T05:19:51.493Z,13.05
2023-02-16T05:22:22.345Z,15.98
2023-02-16T05:24:50.558Z,19.40
2023-02-16T05:27:23.927Z,15.40
2023-02-16T05:29:53.766Z,14.80
2023-02-16T05:32:24.664Z,14.23
2023-02-16T05:34:51.615Z,13.55
2023-02-16T05:37:19.128Z,13.32
2023-02-16T05:39:48.687Z,15.82
2023-02-16T05:42:15.574Z,14.70
2023-02-16T05:44:42.467Z,13.90
2023-02-16T05:47:11.868Z,14.02
2023-02-16T05:49:38.948Z,15.82
2023-02-16T05:52:06.333Z,21.17
2023-02-16T05:54:38.573Z,14.80
2023-02-16T05:57:10.004Z,13.88
2023-02-16T05:59:37.654Z,13.15
2023-02-16T06:06:59.664Z,11.00
2023-02-16T06:09:26.649Z,11.10
2023-02-16T06:11:53.664Z,12.55
2023-02-16T06:14:21.373Z,12.02
2023-02-16T06:16:54.037Z,13.48
2023-02-16T06:19:21.447Z,12.73
2023-02-16T06:21:51.977Z,11.70
2023-02-16T06:24:20.146Z,12.65
2023-02-16T06:26:47.274Z,13.52
2023-02-16T06:31:41.653Z,13.55
2023-02-16T06:34:08.711Z,13.65
2023-02-16T06:36:36.028Z,13.73
2023-02-16T06:39:03.605Z,13.57
2023-02-16T06:41:40.365Z,13.45
2023-02-16T06:44:13.855Z,13.65
2023-02-16T06:46:41.988Z,13.05
2023-02-16T06:49:12.610Z,13.90
2023-02-16T06:51:42.305Z,12.38
2023-02-16T06:54:11.262Z,13.55
2023-02-16T06:56:42.460Z,13.25
2023-02-16T06:59:11.217Z,13.70
2023-02-16T07:01:38.166Z,14.85
2023-02-16T07:04:07.497Z,15.63
2023-02-16T07:06:34.585Z,16.55
2023-02-16T07:09:04.328Z,20.63
2023-02-16T07:11:31.192Z,21.08
2023-02-16T07:13:58.921Z,17.00
2023-02-16T07:16:25.937Z,19.48
2023-02-16T07:18:52.855Z,23.85
2023-02-16T07:21:20.111Z,19.55
2023-02-16T07:26:14.594Z,15.93
2023-02-16T07:28:41.889Z,19.65
2023-02-16T07:33:40.055Z,19.23
2023-02-16T07:36:08.335Z,18.58
2023-02-16T07:38:35.665Z,19.58
2023-02-16T07:41:09.629Z,21.75
2023-02-16T07:43:38.493Z,20.88
2023-02-16T07:46:06.198Z,19.33
2023-02-16T07:48:33.454Z,19.15
2023-02-16T07:53:27.532Z,17.80
2023-02-16T07:58:27.525Z,18.70
2023-02-16T08:01:08.541Z,17.15
2023-02-16T08:03:39.017Z,15.35
2023-02-16T08:06:10.787Z,13.52
2023-02-16T08:08:43.414Z,14.18
2023-02-16T08:11:19.620Z,14.95
2023-02-16T08:13:47.507Z,15.45
2023-02-16T08:16:23.215Z,14.32
2023-02-16T08:18:51.198Z,13.57
2023-02-16T08:21:21.821Z,14.02
2023-02-16T08:23:58.805Z,13.55
2023-02-16T08:26:28.840Z,12.82
2023-02-16T08:28:58.010Z,15.45
2023-02-16T08:31:29.907Z,13.82
2023-02-16T08:34:00.412Z,15.40
2023-02-16T08:36:32.555Z,13.90
2023-02-16T08:39:00.942Z,12.80
2023-02-16T08:41:40.509Z,13.73
2023-02-16T08:44:10.238Z,15.07
2023-02-16T08:46:41.295Z,14.00
2023-02-16T08:49:11.824Z,13.77
2023-02-16T08:51:43.946Z,12.93
2023-02-16T08:54:19.871Z,13.05
2023-02-16T08:56:49.743Z,15.57
2023-02-16T08:59:21.405Z,14.02
2023-02-16T09:01:51.054Z,12.85
2023-02-16T09:04:19.905Z,12.57
2023-02-16T09:06:48.576Z,12.18
2023-02-16T09:09:16.815Z,12.93
2023-02-16T09:11:44.325Z,13.70
2023-02-16T09:14:20.064Z,12.88
2023-02-16T09:16:48.012Z,12.57
2023-02-16T09:19:26.255Z,12.10
2023-02-16T09:22:08.403Z,13.00
2023-02-16T09:24:51.200Z,13.57
2023-02-16T09:27:28.685Z,12.45
2023-02-16T09:30:15.653Z,12.18
2023-02-16T09:33:08.040Z,12.35
2023-02-16T09:36:34.866Z,12.80
2023-02-16T09:39:12.545Z,12.68
2023-02-16T09:53:02.635Z,12.63
2023-02-16T12:05:54.607Z,4.45
2023-02-16T12:08:50.032Z,4.05
2023-02-16T12:11:28.736Z,3.90
2023-02-16T12:13:59.392Z,4.55
2023-02-16T12:16:39.074Z,4.28
2023-02-16T12:19:41.597Z,6.00
2023-02-16T12:22:14.492Z,3.80
2023-02-16T12:24:49.546Z,3.42
2023-02-16T12:27:18.597Z,3.90
2023-02-16T12:29:59.258Z,3.75
2023-02-16T12:32:53.348Z,4.00
2023-02-16T12:35:38.975Z,4.70
2023-02-16T12:38:11.844Z,3.95
2023-02-16T12:40:51.761Z,3.78
2023-02-16T12:43:41.904Z,3.65
2023-02-16T12:46:21.447Z,4.00
2023-02-16T12:48:56.030Z,9.18
2023-02-16T12:51:38.530Z,3.60
2023-02-16T12:54:29.573Z,3.63
2023-02-16T12:57:13.009Z,3.58
2023-02-16T12:59:49.102Z,3.28
2023-02-16T13:02:27.064Z,3.70
2023-02-16T13:05:00.239Z,3.33
2023-02-16T13:07:38.921Z,3.58
2023-02-16T13:10:47.736Z,3.38
2023-02-16T13:13:23.666Z,3.03
2023-02-16T13:16:27.813Z,3.17
2023-02-16T13:18:58.905Z,3.15
2023-02-16T13:21:52.158Z,2.97
2023-02-16T13:24:45.852Z,3.70
2023-02-16T13:27:27.958Z,3.50
2023-02-16T13:30:22.560Z,3.13
2023-02-16T13:32:58.397Z,3.00
2023-02-16T13:35:44.302Z,3.00
2023-02-16T13:38:34.724Z,2.97
2023-02-16T13:41:10.385Z,2.95
2023-02-16T13:43:47.839Z,3.20
2023-02-16T13:46:30.829Z,2.70
2023-02-16T13:49:02.060Z,2.92
2023-02-16T13:51:41.907Z,2.90
2023-02-16T13:54:27.940Z,3.20
2023-02-16T13:56:55.076Z,3.27
2023-02-16T13:59:24.064Z,2.80
2023-02-16T14:01:53.689Z,3.00
2023-02-16T14:04:22.867Z,3.22
2023-02-16T14:06:51.043Z,4.00
2023-02-16T14:09:20.906Z,3.70
2023-02-16T14:11:57.455Z,3.95
2023-02-16T14:15:19.984Z,3.50
2023-02-16T14:17:47.248Z,2.80
2023-02-16T14:22:57.272Z,3.10
2023-02-16T14:25:27.597Z,2.88
2023-02-16T14:28:03.144Z,3.25
2023-02-16T14:30:39.147Z,3.60
2023-02-16T14:33:16.008Z,3.92
2023-02-16T14:35:47.364Z,3.70
2023-02-16T14:38:17.403Z,3.40
2023-02-16T14:40:59.242Z,4.05
2023-02-16T14:43:26.173Z,3.40
2023-02-16T14:46:19.936Z,3.85
2023-02-16T14:49:11.726Z,3.60
2023-02-16T14:51:56.932Z,3.60
2023-02-16T14:54:45.969Z,4.30
2023-02-16T14:57:23.592Z,4.30
2023-02-16T15:00:00.886Z,3.80
2023-02-16T15:02:34.420Z,4.22
2023-02-16T15:05:36.574Z,5.15
2023-02-16T15:08:22.526Z,6.75
2023-02-16T15:10:54.311Z,4.80
2023-02-16T15:13:24.215Z,3.90
2023-02-16T15:15:56.209Z,3.33
2023-02-16T15:18:29.483Z,3.50
2023-02-16T15:21:00.836Z,3.88
2023-02-16T15:23:38.059Z,3.60
2023-02-16T15:26:15.047Z,3.88
2023-02-16T15:28:42.801Z,3.90
2023-02-16T15:31:25.963Z,3.45
2023-02-16T15:34:05.772Z,3.35
2023-02-16T15:36:45.275Z,3.13
2023-02-16T15:39:16.740Z,3.85
2023-02-16T15:41:48.452Z,3.90
2023-02-16T15:44:32.578Z,4.65
2023-02-16T15:47:10.609Z,4.43
2023-02-16T15:49:40.797Z,4.30
2023-02-16T15:52:21.509Z,4.20
2023-02-16T15:54:52.912Z,4.20
2023-02-16T15:57:38.118Z,4.07
2023-02-16T16:00:21.948Z,3.22
2023-02-16T16:02:51.174Z,3.65
2023-02-16T16:05:28.176Z,3.83
2023-02-16T16:07:57.113Z,3.75
2023-02-16T16:10:37.556Z,3.72
2023-02-16T16:13:12.779Z,3.80
2023-02-16T16:15:48.850Z,4.32
2023-02-16T16:18:45.285Z,4.25
2023-02-16T16:23:40.691Z,3.72
2023-02-16T16:26:19.706Z,4.22
2023-02-16T16:28:46.871Z,3.97
2023-02-16T16:31:17.427Z,4.53
2023-02-16T16:34:02.557Z,4.07
2023-02-16T16:36:54.140Z,6.15
2023-02-16T16:39:33.589Z,4.93
2023-02-16T16:42:15.986Z,4.93
2023-02-16T16:44:57.474Z,4.35
2023-02-16T16:47:33.543Z,3.85
2023-02-16T16:50:00.437Z,4.97
2023-02-16T16:52:33.875Z,6.50
2023-02-16T16:55:03.447Z,5.75
2023-02-16T16:57:31.049Z,5.68
2023-02-16T16:59:57.954Z,8.10
2023-02-16T17:02:24.823Z,5.32
2023-02-16T17:04:51.801Z,5.40
2023-02-16T17:07:20.712Z,5.07
2023-02-16T17:09:49.783Z,4.90
2023-02-16T17:12:19.877Z,5.00
2023-02-16T17:14:47.253Z,5.63
2023-02-16T17:22:19.669Z,5.57
2023-02-16T17:24:47.244Z,6.13
2023-02-16T17:27:19.752Z,7.43
2023-02-16T17:29:49.370Z,8.25
2023-02-16T17:32:16.463Z,8.18
2023-02-16T17:34:44.920Z,9.93
2023-02-16T17:37:12.277Z,10.35
2023-02-16T17:42:11.111Z,10.82
2023-02-16T17:44:40.255Z,9.18
2023-02-16T17:47:09.640Z,8.60
2023-02-16T17:49:38.986Z,7.60
2023-02-16T17:52:10.928Z,7.07
2023-02-16T17:54:38.425Z,6.30
2023-02-16T17:57:05.467Z,6.20
2023-02-16T17:59:34.285Z,8.38
2023-02-16T18:02:04.368Z,8.30
2023-02-16T18:04:36.043Z,8.75
2023-02-16T18:07:08.052Z,8.20
2023-02-16T18:09:35.189Z,7.60
2023-02-16T18:12:02.428Z,6.50
2023-02-16T18:14:29.495Z,6.88
2023-02-16T18:17:01.810Z,6.35
2023-02-16T18:19:31.480Z,7.25
2023-02-16T18:21:58.590Z,7.30
2023-02-16T18:24:26.100Z,7.75
2023-02-16T18:26:54.763Z,7.35
2023-02-16T18:29:21.905Z,6.43
2023-02-16T18:36:45.364Z,6.90
2023-02-16T18:39:12.383Z,6.35
2023-02-16T18:41:39.254Z,6.72
2023-02-16T18:44:06.341Z,16.35
2023-02-16T18:46:35.475Z,7.82
2023-02-16T18:49:02.463Z,7.50
2023-02-16T18:51:34.743Z,8.02
2023-02-16T18:54:01.811Z,7.60
2023-02-16T18:56:35.931Z,7.93
2023-02-16T18:59:05.000Z,7.25
2023-02-16T19:01:33.236Z,7.72
2023-02-16T19:04:01.988Z,8.52
2023-02-16T19:06:33.725Z,7.70
2023-02-16T19:09:02.768Z,7.45
2023-02-16T19:11:30.970Z,8.27
2023-02-16T19:13:57.968Z,8.02
2023-02-16T19:16:29.546Z,8.48
2023-02-16T19:18:56.631Z,11.23
2023-02-16T19:21:25.811Z,10.07
2023-02-16T19:23:53.003Z,10.70
2023-02-16T19:26:20.097Z,10.88
2023-02-16T19:28:47.709Z,11.18
2023-02-16T19:31:21.068Z,11.20
2023-02-16T19:33:48.683Z,9.65
2023-02-16T19:36:20.244Z,12.57
2023-02-16T19:38:48.279Z,12.90
2023-02-16T19:41:15.406Z,12.52
2023-02-16T19:43:43.803Z,14.25
2023-02-16T19:46:14.196Z,14.10
2023-02-16T19:48:41.743Z,14.52
2023-02-16T19:51:10.008Z,12.90
2023-02-16T19:53:41.051Z,13.35
2023-02-16T19:56:12.408Z,12.20
2023-02-16T19:58:39.621Z,11.90
2023-02-16T20:01:20.802Z,11.80
2023-02-16T20:03:49.489Z,11.85
2023-02-16T20:06:25.497Z,11.73
2023-02-16T20:08:54.344Z,10.18
2023-02-16T20:11:26.024Z,10.75
2023-02-16T20:13:53.881Z,10.27
2023-02-16T20:16:21.871Z,13.13
2023-02-16T20:18:52.628Z,11.63
2023-02-16T20:21:23.015Z,11.25
2023-02-16T20:23:55.433Z,12.10
2023-02-16T20:26:26.443Z,11.25
2023-02-16T20:29:01.167Z,11.30
2023-02-16T20:31:49.853Z,10.50
2023-02-16T20:34:19.613Z,10.80
2023-02-16T20:36:47.837Z,10.40
2023-02-16T20:39:41.424Z,11.45
2023-02-16T20:42:08.514Z,11.20
2023-02-16T20:44:35.993Z,9.90
2023-02-16T20:47:06.834Z,11.32
2023-02-16T20:49:34.336Z,10.10
2023-02-16T20:52:03.934Z,10.35
2023-02-16T20:54:31.570Z,10.55
2023-02-16T20:56:58.474Z,11.20
2023-02-16T20:59:25.600Z,9.77
2023-02-16T21:01:56.161Z,10.15
2023-02-16T21:04:28.014Z,9.00
2023-02-16T21:06:55.268Z,8.25
2023-02-16T21:11:51.679Z,8.05
2023-02-16T21:14:21.086Z,7.10
2023-02-16T21:16:55.051Z,7.28
2023-02-16T21:19:23.465Z,9.27
2023-02-16T21:21:53.732Z,8.65
2023-02-16T21:24:23.820Z,8.48
2023-02-16T21:26:54.259Z,8.48
2023-02-16T21:29:24.810Z,7.93
2023-02-16T21:31:51.881Z,7.43
2023-02-16T21:34:21.166Z,8.50
2023-02-16T21:36:48.161Z,10.13
2023-02-16T21:39:15.057Z,9.25
2023-02-16T21:41:42.161Z,8.43
2023-02-16T21:44:14.745Z,8.57
2023-02-16T21:46:48.065Z,9.80
2023-02-16T21:49:22.884Z,8.00
2023-02-16T21:51:53.927Z,7.53
2023-02-16T21:55:19.651Z,6.65
2023-02-16T21:57:46.564Z,6.43
2023-02-16T22:00:15.505Z,6.93
2023-02-16T22:02:42.380Z,7.60
2023-02-16T22:05:21.607Z,6.57
2023-02-16T22:07:48.420Z,7.65
2023-02-16T22:10:15.268Z,8.27
2023-02-16T22:12:42.043Z,9.10
2023-02-16T22:15:11.307Z,9.60
2023-02-16T22:17:38.234Z,10.05
2023-02-16T22:20:05.742Z,8.98
2023-02-16T22:22:32.646Z,8.52
2023-02-16T22:24:59.495Z,8.05
2023-02-16T22:27:26.368Z,7.30
2023-02-16T22:29:55.865Z,8.50
2023-02-16T22:32:22.846Z,8.68
2023-02-16T22:34:56.542Z,6.43
2023-02-16T22:37:24.037Z,5.85
2023-02-16T22:39:52.390Z,9.68
2023-02-16T22:42:19.248Z,8.45
2023-02-16T22:44:48.664Z,5.70
2023-02-16T22:47:15.631Z,10.57
2023-02-16T22:49:42.520Z,8.75
2023-02-16T22:52:11.454Z,8.98
2023-02-16T22:54:38.820Z,7.55
2023-02-16T22:59:34.177Z,7.95
2023-02-16T23:02:01.040Z,7.60
2023-02-16T23:04:28.019Z,7.35
2023-02-16T23:06:54.908Z,7.30
2023-02-16T23:09:22.468Z,8.70
2023-02-16T23:11:50.333Z,10.07
2023-02-16T23:14:18.744Z,8.00
2023-02-16T23:16:53.538Z,6.40
2023-02-16T23:19:23.379Z,6.45
2023-02-16T23:21:50.818Z,5.68
2023-02-16T23:24:20.727Z,6.13
2023-02-16T23:26:50.338Z,5.97
2023-02-16T23:31:46.888Z,5.88
2023-02-16T23:34:15.018Z,5.53
2023-02-16T23:36:42.319Z,5.90
2023-02-16T23:39:14.764Z,8.70
2023-02-16T23:41:42.536Z,7.93
2023-02-16T23:44:14.239Z,7.30
2023-02-16T23:46:48.625Z,6.55
2023-02-16T23:49:15.531Z,5.88
2023-02-16T23:51:45.354Z,6.45
2023-02-16T23:54:12.396Z,6.47
2023-02-16T23:56:40.129Z,6.80
2023-02-16T23:59:09.636Z,6.38
